Aviation Digital Data Service (ADDS)

Output produced by METARs form (0254 UTC 20 March 2019)
found at http://www.aviationweather.gov/metar/data/
 
Forecast for: LFRS (NANTES/CHATEAU B, FR)
Text: TAF LFRS 192300Z 2000/2106 VRB03KT 9999 BKN040
Forecast period: 0000 UTC 20 March 2019 to 0600 UTC 21 March 2019
Forecast type: FROM: standard forecast or significant change
Winds: variable direction winds at 3 MPH (3 knots; 1.5 m/s)
Visibility: 6 or more miles 10+ km)
Ceiling: 4000 feet AGL
Clouds: broken clouds at 4000 feet AGL
Weather: no significant weather forecast for this period
Text: TEMPO 2000/2008 3000 BR BKN003
Forecast period: 0000 to 0800 UTC 20 March 2019
Forecast type: TEMPORARY: The following changes expected for less than half the time period
Visibility: 1.86 miles (2.99 km)
Ceiling: 300 feet AGL
Clouds: broken clouds at 300 feet AGL
Weather: BR  (mist)
Text: PROB30
Forecast period: 0200 to 0700 UTC 20 March 2019
Forecast type: TEMPORARY: The following changes expected for less than half the time period
Visibility: 0.25 miles (0.40 km)
Ceiling: unknown
Clouds: missing
Weather: FG  (fog)